Flight Track Log - Related Links

Times and Time Zones

All times are in EDT time to prevent confusion due to time zone crossing. See the JBU1083 flight status page for this flight to view local times or setup timezone preferences in your user account.

Time Position Orientation Groundspeed Altitude Reporting Facility
EDT Latitude Longitude Course Direction KTS MPH feet Rate Location/Type
Thu 08:40:44 PM 40.6333 -73.8500 226° Southwest 169 194 2,100  Level New York TRACON
Thu 08:41:44 PM 40.6000 -73.9000 229° Southwest 246 283 3,900 2,500 Climbing New York TRACON
Thu 08:42:44 PM 40.5333 -73.9667 217° Southwest 271 312 7,100 2,675 Climbing New York TRACON
Thu 08:44:00 PM 40.2079 -74.0941 218° Southwest  Level Estimated
Thu 08:44:30 PM 40.4039 -74.0361 202° Southwest 300 345 11,300  Level New York Center
Thu 08:45:00 PM 40.1214 -74.1567 226° Southwest  Level Estimated
Thu 08:45:30 PM 40.3131 -74.0861 203° Southwest 342 394 13,800  Level New York Center
Thu 08:46:30 PM 40.2325 -74.1314 203° Southwest 359 413 15,900 1,918 Climbing New York Center
Thu 08:52:26 PM 39.7670 -74.4980 203° Southwest 100 115 27,100 1,860 Climbing FlightAware ADS-B
Thu 08:52:41 PM 39.7530 -74.5160 225° Southwest 332 382 27,400 1,341 Climbing FlightAware ADS-B
Thu 08:53:51 PM 39.6720 -74.6180 224° Southwest 327 376 29,000 1,267 Climbing FlightAware ADS-B
Thu 08:54:11 PM 39.6550 -74.6470 233° Southwest 359 413 29,300 764 Climbing FlightAware ADS-B
Thu 08:54:46 PM 39.6190 -74.6960 226° Southwest 340 391 29,700 387 Climbing FlightAware ADS-B
Thu 08:55:13 PM 39.5950 -74.7320 229° Southwest 340 391 29,700 1,760 Level FlightAware ADS-B
Thu 08:56:01 PM 39.5390 -74.8020 224° Southwest 340 391 31,900 1,748 Climbing FlightAware ADS-B
Thu 08:56:56 PM 39.4820 -74.8750 225° Southwest 372 428 32,700 800 Climbing FlightAware ADS-B
Thu 08:57:16 PM 39.4640 -74.9010 228° Southwest 310 357 32,900 218 Climbing FlightAware ADS-B
Thu 08:57:51 PM 39.4340 -74.9400 225° Southwest 310 357 32,900  Level FlightAware ADS-B
Thu 08:58:52 PM 39.3820 -75.0080 225° Southwest 310 357 32,900  Level FlightAware ADS-B
Thu 08:59:16 PM 39.3610 -75.0350 225° Southwest 310 357 32,900  Level FlightAware ADS-B
Thu 09:00:16 PM 39.3090 -75.1020 225° Southwest 310 357 32,900  Level FlightAware ADS-B
Thu 09:00:52 PM 39.2780 -75.1420 225° Southwest 310 357 32,900  Level FlightAware ADS-B
Thu 09:01:53 PM 39.2260 -75.2100 225° Southwest 310 357 32,900  Level FlightAware ADS-B
Thu 09:03:06 PM 39.1630 -75.2910 225° Southwest 310 357 32,900  Level FlightAware ADS-B
Thu 09:03:54 PM 39.1210 -75.3440 224° Southwest 310 357 32,900  Level FlightAware ADS-B
Thu 09:04:43 PM 39.0790 -75.3990 225° Southwest 310 357 32,900  Level FlightAware ADS-B
Thu 09:05:43 PM 39.0270 -75.4650 225° Southwest 310 357 32,900 1,177 Level FlightAware ADS-B
Thu 09:07:21 PM 38.6050 -75.4730 181° South 352 405 36,000 1,240 Climbing FlightAware ADS-B
Thu 09:08:13 PM 38.5400 -75.5130 206° Southwest 352 405 36,000  Level FlightAware ADS-B
Thu 09:08:37 PM 38.5100 -75.5320 206° Southwest 352 405 36,000  Level FlightAware ADS-B
Thu 09:09:13 PM 38.4660 -75.5600 206° Southwest 352 405 36,000  Level FlightAware ADS-B
Thu 09:09:49 PM 38.4210 -75.5870 205° Southwest 352 405 36,000  Level FlightAware ADS-B
Thu 09:10:37 PM 38.3610 -75.6250 206° Southwest 352 405 36,000  Level FlightAware ADS-B
Thu 09:11:37 PM 38.2860 -75.6710 206° Southwest 352 405 36,000  Level FlightAware ADS-B
Thu 09:12:10 PM 38.2450 -75.6970 206° Southwest 352 405 36,000  Level FlightAware ADS-B
Thu 09:13:10 PM 38.1710 -75.7430 206° Southwest 352 405 36,000  Level FlightAware ADS-B
Thu 09:13:58 PM 38.1110 -75.7800 206° Southwest 352 405 36,000  Level FlightAware ADS-B
Thu 09:14:35 PM 38.0650 -75.8080 206° Southwest 352 405 36,000  Level FlightAware ADS-B
Thu 09:15:35 PM 37.9900 -75.8550 206° Southwest 352 405 36,000  Level FlightAware ADS-B
Thu 09:16:24 PM 37.9290 -75.8920 206° Southwest 352 405 36,000  Level FlightAware ADS-B
Thu 09:17:13 PM 37.8680 -75.9300 206° Southwest 352 405 36,000  Level FlightAware ADS-B
Thu 09:18:03 PM 37.6508 -76.0431 206° Southwest 349 402 36,000  Level Washington Center
Thu 09:19:04 PM 37.5653 -76.0922 204° Southwest 349 402 36,000 -49 Level Washington Center
Thu 09:20:05 PM 37.4775 -76.1439 205° Southwest 349 402 35,900  Descending Washington Center
Thu 09:21:03 PM 37.3853 -76.1903 202° Southwest 344 396 36,000 102 Climbing Washington Center
Thu 09:22:03 PM 37.2956 -76.2444 206° Southwest 349 402 36,100 49 Climbing Washington Center
Thu 09:23:05 PM 37.2056 -76.2933 203° Southwest 354 407 36,100  Level Washington Center
Thu 09:24:05 PM 37.1156 -76.3444 204° Southwest 359 413 36,100 -51 Level Washington Center
Thu 09:25:03 PM 37.0253 -76.3958 204° Southwest 359 413 36,000 -50 Descending Washington Center
Thu 09:26:05 PM 36.9353 -76.4469 204° Southwest 359 413 36,000  Level Washington Center
Thu 09:27:03 PM 36.8453 -76.5003 205° Southwest 359 413 36,000 50 Level Washington Center
Thu 09:28:04 PM 36.7553 -76.5536 205° Southwest 359 413 36,100  Climbing Washington Center
Thu 09:29:04 PM 36.6650 -76.6094 206° Southwest 359 413 36,000 -50 Descending Washington Center
Thu 09:30:05 PM 36.5728 -76.6600 204° Southwest 365 420 36,000  Level Washington Center
Thu 09:31:05 PM 36.4806 -76.7106 204° Southwest 365 420 36,000  Level Washington Center
Thu 09:32:05 PM 36.3925 -76.7583 204° Southwest 360 414 36,000  Level Washington Center
Thu 09:33:04 PM 36.3042 -76.8111 206° Southwest 360 414 36,000  Level Washington Center
Thu 09:34:05 PM 36.2119 -76.8586 203° Southwest 360 414 36,000  Level Washington Center
Thu 09:35:05 PM 36.1258 -76.9086 205° Southwest 360 414 36,000  Level Washington Center
Thu 09:36:03 PM 36.0356 -76.9586 204° Southwest 360 414 36,000  Level Washington Center
Thu 09:37:04 PM 35.9433 -77.0083 204° Southwest 360 414 36,000  Level Washington Center
Thu 09:38:05 PM 35.8528 -77.0578 204° Southwest 360 414 36,000 101 Level Washington Center
Thu 09:39:03 PM 35.7625 -77.1047 203° Southwest 360 414 36,200 450 Climbing Washington Center
Thu 09:40:05 PM 35.6597 -77.1439 197° South 360 414 36,900 689 Climbing Washington Center
Thu 09:41:05 PM 35.5592 -77.1803 196° South 360 414 37,600 559 Climbing Washington Center
Thu 09:42:03 PM 35.4628 -77.2164 197° South 366 421 38,000 203 Climbing Washington Center
Thu 09:43:03 PM 35.3683 -77.2528 197° South 366 421 38,000  Level Washington Center
Thu 09:44:04 PM 35.2697 -77.2889 197° South 366 421 38,000  Level Washington Center
Thu 09:45:04 PM 35.1711 -77.3275 198° South 366 421 38,000  Level Washington Center
Thu 09:46:05 PM 35.0747 -77.3636 197° South 366 421 38,000  Level Washington Center
Thu 09:47:03 PM 34.9781 -77.3994 197° South 366 421 38,000 50 Level Washington Center
Thu 09:48:04 PM 34.8775 -77.4325 195° South 366 421 38,100  Climbing Washington Center
Thu 09:49:04 PM 34.7831 -77.4708 198° South 366 421 38,000 -50 Descending Washington Center
Thu 09:50:03 PM 34.6864 -77.5067 197° South 366 421 38,000  Level Washington Center
Thu 09:51:03 PM 34.5900 -77.5422 197° South 366 421 38,000  Level Washington Center
Thu 09:52:04 PM 34.4933 -77.5778 197° South 366 421 38,000  Level Washington Center
Thu 09:53:05 PM 34.4072 -77.6133 199° South 366 421 38,000  Level Washington Center
Thu 09:54:03 PM 34.3106 -77.6461 196° South 366 421 38,000  Level Washington Center
Thu 09:55:04 PM 34.2142 -77.6789 196° South 366 421 38,000  Level Washington Center
Thu 09:56:05 PM 34.1175 -77.7142 197° South 366 421 38,000  Level Washington Center
Thu 09:57:07 PM 34.0008 -77.7553 196° South 367 422 38,000  Level Jacksonville Center
Thu 09:58:07 PM 33.9044 -77.7908 197° South 361 415 38,000  Level Jacksonville Center
Thu 09:59:07 PM 33.8078 -77.8264 197° South 361 415 38,000  Level Jacksonville Center
Thu 10:00:07 PM 33.7111 -77.8594 196° South 361 415 38,000  Level Jacksonville Center
Thu 10:01:07 PM 33.6225 -77.8919 197° South 361 415 38,000  Level Jacksonville Center
Thu 10:02:07 PM 33.5239 -77.9275 197° South 366 421 38,000  Level Jacksonville Center
Thu 10:03:07 PM 33.4250 -77.9628 197° South 371 427 38,000  Level Jacksonville Center
Thu 10:04:07 PM 33.3283 -77.9956 196° South 371 427 38,000  Level Jacksonville Center
Thu 10:05:07 PM 33.2317 -78.0331 198° South 371 427 38,000  Level Jacksonville Center
Thu 10:06:07 PM 33.1347 -78.0656 196° South 371 427 38,000  Level Jacksonville Center
Thu 10:07:07 PM 33.0358 -78.0983 196° South 371 427 38,000  Level Jacksonville Center
Thu 10:08:07 PM 32.9392 -78.1356 198° South 371 427 38,000  Level Jacksonville Center
Thu 10:09:07 PM 32.8403 -78.1681 195° South 376 433 38,000  Level Jacksonville Center
Thu 10:10:07 PM 32.7392 -78.2028 196° South 376 433 38,000  Level Jacksonville Center
Thu 10:11:07 PM 32.6425 -78.2375 197° South 376 433 38,000  Level Jacksonville Center
Thu 10:12:07 PM 32.5436 -78.2722 196° South 376 433 38,000  Level Jacksonville Center
Thu 10:13:07 PM 32.4425 -78.3069 196° South 371 427 38,000  Level Jacksonville Center
Thu 10:14:07 PM 32.3314 -78.3469 197° South 371 427 38,000  Level Jacksonville Center
Thu 10:15:07 PM 32.2325 -78.3836 197° South 377 434 38,000  Level Jacksonville Center
Thu 10:16:07 PM 32.1292 -78.4181 196° South 377 434 38,000  Level Jacksonville Center
Thu 10:17:07 PM 32.0303 -78.4525 196° South 377 434 38,000  Level Jacksonville Center
Thu 10:18:07 PM 31.9292 -78.4892 197° South 377 434 38,000  Level Jacksonville Center
Thu 10:19:07 PM 31.8303 -78.5208 195° South 377 434 38,000  Level Jacksonville Center
Thu 10:20:07 PM 31.7292 -78.5572 197° South 372 428 38,000  Level Jacksonville Center
Thu 10:21:07 PM 31.6300 -78.5911 196° South 372 428 38,000  Level Jacksonville Center
Thu 10:22:07 PM 31.5308 -78.6225 195° South 377 434 38,000  Level Jacksonville Center
Thu 10:23:07 PM 31.4300 -78.6589 197° South 384 442 38,000  Level Jacksonville Center
Thu 10:24:07 PM 31.3328 -78.6922 196° South 371 427 38,000  Level Jacksonville Center
Thu 10:25:07 PM 31.2278 -78.7311 198° South 382 440 38,000  Level Jacksonville Center
Thu 10:26:07 PM 31.1325 -78.7547 192° South 376 433 38,000  Level Jacksonville Center
Thu 10:27:07 PM 31.0294 -78.7956 199° South 376 433 38,000  Level Jacksonville Center
Thu 10:28:07 PM 30.9383 -78.8239 195° South 376 433 38,000  Level Jacksonville Center
Thu 10:29:07 PM 30.8414 -78.8569 196° South 376 433 38,000  Level Jacksonville Center
Thu 10:30:07 PM 30.7422 -78.8903 196° South 376 433 38,000  Level Jacksonville Center
Thu 10:31:07 PM 30.6389 -78.9236 196° South 382 440 38,000  Level Jacksonville Center
Thu 10:31:51 PM 30.5567 -78.9508 196° South 376 433 38,000  Level Miami Center
Thu 10:32:51 PM 30.4647 -78.9825 197° South 376 433 38,000  Level Miami Center
Thu 10:33:52 PM 30.3597 -79.0214 198° South 381 438 38,000  Level Miami Center
Thu 10:34:53 PM 30.2675 -79.0628 201° Southwest 381 438 38,000  Level Miami Center
Thu 10:35:51 PM 30.1689 -79.1039 200° South 375 432 38,000  Level Miami Center
Thu 10:36:51 PM 30.0764 -79.1450 201° Southwest 375 432 38,000  Level Miami Center
Thu 10:37:51 PM 29.9858 -79.2031 209° Southwest 370 426 38,000  Level Miami Center
Thu 10:38:52 PM 29.8872 -79.2367 196° South 370 426 38,000 50 Level Miami Center
Thu 10:39:51 PM 29.7867 -79.2753 198° South 370 426 38,100  Climbing Miami Center
Thu 10:40:50 PM 29.7083 -79.3403 216° Southwest 368 423 38,000 -100 Descending Miami Center
Thu 10:41:51 PM 29.6339 -79.4222 224° Southwest 358 412 37,900 -545 Descending Miami Center
Thu 10:42:51 PM 29.5594 -79.4967 221° Southwest 363 418 36,900 -950 Descending Miami Center
Thu 10:43:51 PM 29.4808 -79.5733 220° Southwest 363 418 36,000 -958 Descending Miami Center
Thu 10:44:50 PM 29.4044 -79.6525 222° Southwest 368 423 35,000 -1,636 Descending Miami Center
Thu 10:45:52 PM 29.3275 -79.7339 223° Southwest 373 429 32,700 -2,579 Descending Miami Center
Thu 10:46:51 PM 29.2406 -79.8125 218° Southwest 384 442 29,800 -2,723 Descending Miami Center
Thu 10:47:51 PM 29.1597 -79.8911 220° Southwest 390 449 27,300 -2,430 Descending Miami Center
Thu 10:48:52 PM 29.0786 -79.9742 222° Southwest 390 449 24,900 -2,420 Descending Miami Center
Thu 10:49:50 PM 28.9975 -80.0575 222° Southwest 395 455 22,500 -2,370 Descending Miami Center
Thu 10:50:51 PM 28.9286 -80.1456 228° Southwest 395 455 20,200 -2,342 Descending Miami Center
Thu 10:52:57 PM 28.8500 -80.3667 248° West 358 412 15,200 -2,000 Descending Orlando TRACON
Thu 10:53:57 PM 28.8333 -80.4667 259° West 347 399 14,000 -850 Descending Orlando TRACON
Thu 10:54:57 PM 28.7833 -80.5667 240° Southwest 350 403 13,500 -1,053 Descending Orlando TRACON
Thu 10:55:51 PM 28.7333 -80.6500 236° Southwest 330 380 12,000 -1,500 Descending Orlando TRACON
Thu 10:56:57 PM 28.6667 -80.7333 228° Southwest 318 366 10,500 -1,286 Descending Orlando TRACON
Thu 10:57:57 PM 28.6167 -80.8000 229° Southwest 285 328 9,300 -1,455 Descending Orlando TRACON
Thu 10:59:09 PM 28.5667 -80.8833 236° Southwest 289 333 7,300 -1,524 Descending Orlando TRACON
Thu 11:00:03 PM 28.5167 -80.9500 230° Southwest 288 331 6,100 -1,000 Descending Orlando TRACON
Thu 11:01:09 PM 28.4667 -81.0333 236° Southwest 293 337 5,300 -864 Descending Orlando TRACON
Thu 11:02:15 PM 28.4000 -81.1000 221° Southwest 259 298 4,200 -952 Descending Orlando TRACON
Thu 11:03:15 PM 28.3667 -81.1667 240° Southwest 246 283 3,300 -850 Descending Orlando TRACON
Thu 11:04:15 PM 28.3333 -81.2333 240° Southwest 224 258 2,500 -850 Descending Orlando TRACON
Thu 11:05:15 PM 28.3333 -81.3000 270° West 201 231 1,600 -600 Descending Orlando TRACON
Thu 11:06:15 PM 28.3667 -81.3167 336° Northwest 129 148 1,300 -571 Descending Orlando TRACON
Thu 11:07:21 PM 28.4000 -81.3333 336° Northwest 129 148 400 -818 Descending Orlando TRACON

Login

Don't have an account? Register now (free) for customized features, flight alerts, and more!